Time;durP1;ratioP1;P1;durP2;ratioP2;P2;SDS_P1;SDS_P2;PMS_P1;PMS_P2;Temp;Humidity;BMP_temperature;BMP_pressure;BME280_temperature;BME280_humidity;BME280_pressure;Samples;Min_cycle;Max_cycle;Signal;HPM_P1;HPM_P2
2024/01/17 00:00:38;;;;;;;10.23;5.10;;;;;;;-0.55;100.00;99926.09;6253794;28;20076;-75
2024/01/17 00:03:39;;;;;;;15.48;5.68;;;;;;;-0.79;100.00;99919.72;6253732;28;20363;-75
2024/01/17 00:06:40;;;;;;;8.02;5.20;;;;;;;-0.73;100.00;99913.59;6253068;28;20053;-75
2024/01/17 00:09:42;;;;;;;10.70;4.30;;;;;;;-0.66;100.00;99903.13;6253917;28;20464;-75
2024/01/17 00:12:44;;;;;;;13.45;4.88;;;;;;;-0.65;100.00;99904.81;6253671;28;20433;-75
2024/01/17 00:15:46;;;;;;;20.98;5.65;;;;;;;-0.54;100.00;99899.44;6253584;28;20046;-74
2024/01/17 00:18:47;;;;;;;8.93;5.03;;;;;;;-0.58;100.00;99903.81;6253920;28;20053;-74
2024/01/17 00:21:50;;;;;;;9.93;5.03;;;;;;;-0.51;100.00;99889.03;6253179;28;20053;-75
2024/01/17 00:24:52;;;;;;;9.82;5.22;;;;;;;-0.53;100.00;99885.66;6253475;28;20049;-75
2024/01/17 00:27:54;;;;;;;8.82;4.53;;;;;;;-0.52;100.00;99872.72;6252782;28;20327;-75
2024/01/17 00:30:57;;;;;;;11.18;3.90;;;;;;;-0.57;100.00;99871.13;6253643;28;20045;-75
2024/01/17 00:33:58;;;;;;;14.77;4.32;;;;;;;-0.55;100.00;99866.75;6253172;28;20080;-75
2024/01/17 00:36:59;;;;;;;10.02;4.70;;;;;;;-0.52;100.00;99857.22;6252763;28;20050;-75
2024/01/17 00:40:00;;;;;;;12.18;4.40;;;;;;;-0.55;100.00;99857.28;6252994;28;20045;-75
2024/01/17 00:43:03;;;;;;;7.25;3.95;;;;;;;-0.56;100.00;99849.59;6253090;28;20056;-75
2024/01/17 00:46:05;;;;;;;10.55;4.85;;;;;;;-0.52;100.00;99852.06;6252654;28;20061;-75
2024/01/17 00:49:06;;;;;;;10.25;4.63;;;;;;;-0.54;100.00;99843.53;6253254;28;20183;-75
2024/01/17 00:52:09;;;;;;;12.90;3.78;;;;;;;-0.52;100.00;99843.47;6253045;28;20461;-75
2024/01/17 00:55:11;;;;;;;12.43;4.30;;;;;;;-0.56;100.00;99837.53;6252744;28;20430;-75
2024/01/17 00:58:14;;;;;;;10.02;4.75;;;;;;;-0.57;100.00;99833.25;6252507;28;20434;-75
2024/01/17 01:01:15;;;;;;;13.85;4.80;;;;;;;-0.60;100.00;99835.91;6252586;28;20049;-75
2024/01/17 01:04:16;;;;;;;10.60;4.00;;;;;;;-0.59;100.00;99837.63;6252700;28;20081;-75
2024/01/17 01:07:18;;;;;;;6.85;3.53;;;;;;;-0.57;100.00;99840.16;6251826;28;20453;-75
2024/01/17 01:10:20;;;;;;;15.70;4.18;;;;;;;-0.57;100.00;99841.00;6252605;28;20050;-75
2024/01/17 01:13:23;;;;;;;8.10;3.95;;;;;;;-0.56;100.00;99832.38;6252222;28;20053;-75
2024/01/17 01:16:24;;;;;;;9.05;3.88;;;;;;;-0.58;100.00;99833.31;6252099;28;20092;-75
2024/01/17 01:19:25;;;;;;;9.77;4.15;;;;;;;-0.59;100.00;99823.84;6252245;28;20050;-75
2024/01/17 01:22:27;;;;;;;9.10;3.47;;;;;;;-0.69;100.00;99827.53;6251618;28;20049;-75
2024/01/17 01:25:28;;;;;;;8.80;3.85;;;;;;;-0.70;100.00;99828.41;6250133;28;20050;-75
2024/01/17 01:28:31;;;;;;;5.95;3.58;;;;;;;-0.72;100.00;99835.34;6251848;28;20053;-75
2024/01/17 01:31:32;;;;;;;11.65;4.00;;;;;;;-0.71;100.00;99830.16;6251788;28;20045;-75
2024/01/17 01:34:33;;;;;;;11.18;4.32;;;;;;;-0.71;100.00;99831.88;6251652;28;20053;-75
2024/01/17 01:37:35;;;;;;;13.10;4.40;;;;;;;-0.75;100.00;99831.09;6251287;28;20049;-75
2024/01/17 01:40:38;;;;;;;17.77;4.15;;;;;;;-0.74;100.00;99832.78;6251557;28;20342;-76
2024/01/17 01:43:40;;;;;;;9.95;4.03;;;;;;;-0.70;100.00;99820.66;6251581;28;20054;-75
2024/01/17 01:46:45;;;;;;;8.25;4.13;;;;;;;-0.80;100.00;99832.94;6251000;28;20060;-75
2024/01/17 01:49:47;;;;;;;11.35;3.53;;;;;;;-0.77;100.00;99828.56;6251719;28;20057;-75
2024/01/17 01:52:50;;;;;;;7.13;2.92;;;;;;;-0.83;100.00;99825.25;6251301;28;20049;-75
2024/01/17 01:55:53;;;;;;;7.75;3.17;;;;;;;-0.86;100.00;99828.75;6251225;28;20050;-76
2024/01/17 01:58:57;;;;;;;10.35;3.72;;;;;;;-0.88;100.00;99827.94;6251505;28;20430;-76
2024/01/17 02:01:58;;;;;;;7.28;3.55;;;;;;;-0.78;100.00;99818.25;6251114;28;20061;-75
2024/01/17 02:05:04;;;;;;;8.35;3.08;;;;;;;-0.78;100.00;99811.34;6251207;28;20099;-76
2024/01/17 02:08:06;;;;;;;18.13;3.60;;;;;;;-0.83;100.00;99800.31;6250217;28;20042;-75
2024/01/17 02:11:08;;;;;;;6.45;2.67;;;;;;;-0.76;100.00;99801.03;6251191;28;20048;-75
2024/01/17 02:14:11;;;;;;;9.55;3.90;;;;;;;-0.82;100.00;99799.44;6250761;28;20076;-76
2024/01/17 02:17:12;;;;;;;6.03;3.08;;;;;;;-0.86;100.00;99791.81;6250760;28;20095;-75
2024/01/17 02:20:14;;;;;;;15.82;4.03;;;;;;;-0.83;100.00;99782.25;6250654;28;20049;-75
2024/01/17 02:23:22;;;;;;;14.45;3.50;;;;;;;-0.81;100.00;99783.06;6250665;28;20052;-75
2024/01/17 02:26:25;;;;;;;7.33;3.37;;;;;;;-0.82;100.00;99773.66;6250393;28;20085;-75
2024/01/17 02:29:27;;;;;;;9.07;3.03;;;;;;;-0.80;100.00;99771.88;6250748;28;20053;-76
2024/01/17 02:32:28;;;;;;;6.57;2.88;;;;;;;-0.79;100.00;99757.25;6250454;28;20054;-76
2024/01/17 02:35:29;;;;;;;4.68;2.95;;;;;;;-0.80;100.00;99740.06;6249670;28;20056;-76
2024/01/17 02:38:31;;;;;;;10.38;3.15;;;;;;;-0.78;100.00;99735.72;6250342;28;20358;-75
2024/01/17 02:41:33;;;;;;;5.82;2.63;;;;;;;-0.77;100.00;99727.97;6250463;28;20052;-76
2024/01/17 02:44:35;;;;;;;6.30;3.05;;;;;;;-0.75;100.00;99727.06;6250453;28;20064;-75
2024/01/17 02:47:37;;;;;;;7.63;3.50;;;;;;;-0.78;100.00;99718.50;6260475;28;20258;-75
2024/01/17 02:50:39;;;;;;;8.05;3.05;;;;;;;-0.69;100.00;99709.69;6261558;28;20124;-76
2024/01/17 02:53:40;;;;;;;4.55;2.67;;;;;;;-0.73;100.00;99692.59;6257952;28;20046;-75
2024/01/17 02:56:44;;;;;;;9.23;3.13;;;;;;;-0.71;100.00;99685.69;6237618;28;20061;-75
2024/01/17 02:59:45;;;;;;;9.45;2.88;;;;;;;-0.82;100.00;99687.66;6286789;22;21302;-72
2024/01/17 03:02:46;;;;;;;9.80;3.25;;;;;;;-0.83;100.00;99670.50;6286400;28;20345;-72
2024/01/17 03:05:48;;;;;;;11.43;3.03;;;;;;;-0.77;100.00;99668.63;6286061;28;20045;-72
2024/01/17 03:08:49;;;;;;;7.10;3.53;;;;;;;-0.66;100.00;99660.63;6267430;28;20052;-70
2024/01/17 03:11:52;;;;;;;6.40;2.78;;;;;;;-0.57;100.00;99662.97;6256372;28;20049;-71
2024/01/17 03:14:54;;;;;;;9.80;2.72;;;;;;;-0.54;100.00;99659.47;6245222;28;20472;-72
2024/01/17 03:17:56;;;;;;;5.85;2.65;;;;;;;-0.64;100.00;99651.09;6252694;28;20461;-71
2024/01/17 03:20:57;;;;;;;10.02;2.83;;;;;;;-0.63;100.00;99655.41;6258950;28;20056;-71
2024/01/17 03:24:00;;;;;;;6.75;3.10;;;;;;;-0.65;100.00;99651.16;6261304;28;20350;-71
2024/01/17 03:27:03;;;;;;;8.40;3.17;;;;;;;-0.62;100.00;99645.91;6261068;28;20135;-70
2024/01/17 03:30:06;;;;;;;5.95;2.92;;;;;;;-0.62;100.00;99626.13;6262507;28;20045;-71
2024/01/17 03:33:08;;;;;;;6.00;2.50;;;;;;;-0.57;100.00;99623.41;6260113;28;20353;-72
2024/01/17 03:36:09;;;;;;;6.20;2.75;;;;;;;-0.63;100.00;99614.13;6261962;28;20056;-71
2024/01/17 03:39:10;;;;;;;9.65;2.83;;;;;;;-0.66;100.00;99606.44;6255774;28;20053;-71
2024/01/17 03:42:15;;;;;;;11.10;2.38;;;;;;;-0.71;100.00;99600.56;6249455;28;20050;-70
2024/01/17 03:45:17;;;;;;;7.75;2.80;;;;;;;-0.65;100.00;99586.66;6251675;28;20056;-71
2024/01/17 03:48:18;;;;;;;5.85;2.83;;;;;;;-0.77;100.00;99568.03;6253608;28;20050;-71
2024/01/17 03:51:19;;;;;;;6.15;2.58;;;;;;;-0.74;100.00;99571.41;6254513;28;20042;-71
2024/01/17 03:54:21;;;;;;;12.48;3.17;;;;;;;-0.69;100.00;99564.41;6254173;28;20053;-71
2024/01/17 03:57:23;;;;;;;6.30;2.75;;;;;;;-0.71;100.00;99558.44;6254105;28;20083;-71
2024/01/17 04:00:25;;;;;;;9.20;3.45;;;;;;;-0.80;100.00;99549.22;6253832;28;20076;-71
2024/01/17 04:03:26;;;;;;;7.80;2.55;;;;;;;-0.84;100.00;99551.03;6254149;28;20049;-71
2024/01/17 04:06:29;;;;;;;11.13;2.67;;;;;;;-0.79;100.00;99549.16;6253381;28;20045;-71
2024/01/17 04:09:30;;;;;;;7.63;2.47;;;;;;;-0.79;100.00;99549.16;6254313;28;20046;-71
2024/01/17 04:12:33;;;;;;;8.82;3.60;;;;;;;-0.87;100.00;99548.50;6253782;28;20053;-71
2024/01/17 04:15:34;;;;;;;11.23;3.05;;;;;;;-0.82;100.00;99551.84;6253750;28;20068;-71
2024/01/17 04:18:36;;;;;;;5.40;2.58;;;;;;;-0.90;100.00;99547.78;6254184;28;20438;-71
2024/01/17 04:21:38;;;;;;;5.13;2.15;;;;;;;-0.80;100.00;99546.63;6253672;28;20052;-71
2024/01/17 04:24:39;;;;;;;6.15;2.63;;;;;;;-0.73;100.00;99543.00;6254006;28;20049;-72
2024/01/17 04:27:42;;;;;;;8.85;2.67;;;;;;;-0.74;100.00;99543.88;6253392;28;20072;-71
2024/01/17 04:30:44;;;;;;;7.05;2.85;;;;;;;-0.67;100.00;99547.16;6254493;28;20132;-71
2024/01/17 04:33:45;;;;;;;7.97;2.03;;;;;;;-0.78;100.00;99543.13;6255380;28;20046;-71
2024/01/17 04:36:47;;;;;;;7.10;2.97;;;;;;;-0.82;100.00;99545.81;6254220;28;20049;-71
2024/01/17 04:39:48;;;;;;;7.50;2.40;;;;;;;-0.79;100.00;99540.59;6259715;28;20143;-71
2024/01/17 04:42:51;;;;;;;6.18;2.92;;;;;;;-0.71;100.00;99532.66;6258198;28;20048;-71
2024/01/17 04:45:52;;;;;;;3.92;2.35;;;;;;;-0.72;100.00;99529.22;6259084;28;20050;-72
2024/01/17 04:48:54;;;;;;;6.82;3.05;;;;;;;-0.85;100.00;99520.97;6258609;28;20050;-71
2024/01/17 04:51:55;;;;;;;7.50;2.75;;;;;;;-0.88;100.00;99513.31;6253438;28;20354;-71
2024/01/17 04:54:57;;;;;;;8.93;3.00;;;;;;;-0.95;100.00;99508.34;6252675;28;20049;-71
2024/01/17 04:57:59;;;;;;;5.10;2.10;;;;;;;-0.90;100.00;99506.50;6251808;28;20457;-71
2024/01/17 05:01:01;;;;;;;5.80;2.42;;;;;;;-0.81;100.00;99514.84;6252540;28;20060;-71
2024/01/17 05:04:02;;;;;;;6.38;2.67;;;;;;;-0.92;100.00;99510.84;6252715;28;20053;-71
2024/01/17 05:07:04;;;;;;;6.55;2.55;;;;;;;-0.85;100.00;99504.66;6251989;28;20136;-71
2024/01/17 05:10:07;;;;;;;7.28;2.38;;;;;;;-0.94;100.00;99498.00;6252624;28;20500;-71
2024/01/17 05:13:11;;;;;;;5.55;2.55;;;;;;;-0.99;100.00;99489.56;6252271;28;20427;-71
2024/01/17 05:16:12;;;;;;;8.68;2.80;;;;;;;-1.02;100.00;99482.72;6252209;28;20057;-71
2024/01/17 05:19:13;;;;;;;5.80;2.60;;;;;;;-1.04;100.00;99479.38;6252391;28;20073;-70
2024/01/17 05:22:15;;;;;;;7.82;2.40;;;;;;;-0.98;100.00;99474.94;6252131;28;20092;-72
2024/01/17 05:25:17;;;;;;;5.20;2.13;;;;;;;-1.00;100.00;99479.25;6251860;28;20049;-71
2024/01/17 05:28:20;;;;;;;6.35;2.38;;;;;;;-1.08;100.00;99464.00;6251776;28;20056;-71
2024/01/17 05:31:21;;;;;;;6.25;2.80;;;;;;;-1.07;100.00;99466.53;6252188;28;20057;-71
2024/01/17 05:34:22;;;;;;;4.80;2.17;;;;;;;-1.06;100.00;99457.06;6251609;28;20052;-71
2024/01/17 05:37:24;;;;;;;15.85;3.35;;;;;;;-1.07;100.00;99438.19;6251413;28;20484;-71
2024/01/17 05:40:25;;;;;;;4.68;2.67;;;;;;;-1.08;100.00;99433.09;6251870;28;20117;-72
2024/01/17 05:43:28;;;;;;;6.22;2.25;;;;;;;-1.17;100.00;99423.88;6251737;28;20438;-71
2024/01/17 05:46:29;;;;;;;4.30;2.13;;;;;;;-1.18;100.00;99427.34;6243294;28;20124;-72
2024/01/17 05:49:31;;;;;;;2.97;1.95;;;;;;;-1.16;100.00;99424.69;6252057;28;20045;-72
2024/01/17 05:52:32;;;;;;;3.30;1.83;;;;;;;-1.15;100.00;99421.22;6251357;28;20052;-71
2024/01/17 05:55:33;;;;;;;6.03;2.20;;;;;;;-1.24;100.00;99419.75;6251316;28;20049;-71
2024/01/17 05:58:36;;;;;;;11.45;2.67;;;;;;;-1.28;100.00;99408.66;6251579;28;20434;-71
2024/01/17 06:01:37;;;;;;;6.05;2.40;;;;;;;-1.22;100.00;99399.09;6251139;28;20042;-71
2024/01/17 06:04:38;;;;;;;5.00;2.25;;;;;;;-1.25;100.00;99397.44;6251198;28;20370;-71
2024/01/17 06:07:40;;;;;;;5.63;2.33;;;;;;;-1.18;100.00;99405.84;6249915;28;20061;-71
2024/01/17 06:10:42;;;;;;;14.82;3.47;;;;;;;-1.35;100.00;99402.00;6251368;28;20057;-71
2024/01/17 06:13:44;;;;;;;8.07;2.35;;;;;;;-1.38;100.00;99385.78;6250737;28;20357;-72
2024/01/17 06:16:46;;;;;;;8.30;2.92;;;;;;;-1.26;100.00;99379.47;6251148;28;20060;-72
2024/01/17 06:19:48;;;;;;;8.88;3.28;;;;;;;-1.33;100.00;99373.59;6251030;28;20045;-72
2024/01/17 06:22:49;;;;;;;5.47;2.75;;;;;;;-1.34;100.00;99364.19;6250869;28;20046;-71
2024/01/17 06:25:50;;;;;;;5.63;2.42;;;;;;;-1.33;100.00;99363.31;6250743;28;20049;-72
2024/01/17 06:28:53;;;;;;;11.60;3.13;;;;;;;-1.25;100.00;99356.22;6251094;28;20049;-72
2024/01/17 06:31:54;;;;;;;7.32;2.72;;;;;;;-1.22;100.00;99348.41;6250964;28;20461;-72
2024/01/17 06:34:56;;;;;;;8.57;2.63;;;;;;;-1.23;100.00;99348.44;6250601;28;20053;-72
2024/01/17 06:37:57;;;;;;;11.18;2.53;;;;;;;-1.20;100.00;99344.03;6250042;28;20049;-72
2024/01/17 06:40:58;;;;;;;6.57;2.20;;;;;;;-1.20;100.00;99340.63;6251054;28;20083;-72
2024/01/17 06:44:01;;;;;;;5.47;3.55;;;;;;;-1.21;100.00;99338.94;6250497;28;20045;-72
2024/01/17 06:47:03;;;;;;;6.05;2.85;;;;;;;-1.20;100.00;99335.47;6250114;28;20453;-71
2024/01/17 06:50:05;;;;;;;14.38;2.67;;;;;;;-1.26;100.00;99322.75;6250795;28;20054;-71
2024/01/17 06:53:06;;;;;;;7.38;2.65;;;;;;;-1.26;100.00;99315.03;6250328;28;20048;-71
2024/01/17 06:56:08;;;;;;;12.68;2.67;;;;;;;-1.20;100.00;99310.53;6250282;28;20054;-70
2024/01/17 06:59:10;;;;;;;5.32;2.80;;;;;;;-1.25;100.00;99302.09;6250466;28;20061;-72
2024/01/17 07:02:12;;;;;;;8.98;2.60;;;;;;;-1.24;100.00;99311.50;6250168;28;20111;-72
2024/01/17 07:05:13;;;;;;;6.80;2.80;;;;;;;-1.16;100.00;99311.28;6250045;28;20050;-72
2024/01/17 07:08:14;;;;;;;8.98;3.30;;;;;;;-1.11;100.00;99302.53;6249605;28;20045;-71
2024/01/17 07:11:16;;;;;;;5.32;2.13;;;;;;;-1.13;100.00;99301.75;6250466;28;20049;-72
2024/01/17 07:14:18;;;;;;;6.88;2.67;;;;;;;-1.16;100.00;99298.41;6249980;28;20160;-71
2024/01/17 07:17:20;;;;;;;5.10;2.40;;;;;;;-1.07;100.00;99298.13;6252276;28;20354;-71
2024/01/17 07:20:21;;;;;;;7.90;2.53;;;;;;;-1.07;100.00;99295.56;6251921;28;20049;-71
2024/01/17 07:23:22;;;;;;;4.18;2.28;;;;;;;-1.11;100.00;99283.66;6255091;28;20046;-72
2024/01/17 07:26:24;;;;;;;4.85;2.63;;;;;;;-1.11;100.00;99271.59;6253899;28;20056;-73
2024/01/17 07:29:26;;;;;;;5.22;2.72;;;;;;;-1.08;100.00;99276.69;6255050;28;20081;-71
2024/01/17 07:32:28;;;;;;;5.65;2.35;;;;;;;-1.15;100.00;99279.47;6257141;28;20354;-71
2024/01/17 07:35:30;;;;;;;7.35;3.65;;;;;;;-1.12;100.00;99277.66;6268984;28;20041;-71
2024/01/17 07:38:32;;;;;;;4.82;2.08;;;;;;;-1.20;100.00;99277.03;6261189;28;20499;-71
2024/01/17 07:41:33;;;;;;;8.75;3.00;;;;;;;-1.20;100.00;99269.28;6273834;28;20176;-70
2024/01/17 07:44:36;;;;;;;10.50;2.65;;;;;;;-1.12;100.00;99272.50;6264904;28;20056;-71
2024/01/17 07:47:37;;;;;;;5.63;2.88;;;;;;;-1.24;100.00;99267.69;6267724;28;20045;-71
2024/01/17 07:50:39;;;;;;;5.05;2.55;;;;;;;-1.15;100.00;99267.44;6254364;28;20608;-71
2024/01/17 07:53:40;;;;;;;5.10;2.53;;;;;;;-1.12;100.00;99264.75;6254549;28;20155;-71
2024/01/17 07:56:41;;;;;;;7.40;2.60;;;;;;;-1.10;100.00;99269.88;6254351;28;20060;-72
2024/01/17 07:59:44;;;;;;;13.20;3.17;;;;;;;-1.05;100.00;99266.25;6254083;28;20054;-72
2024/01/17 08:02:46;;;;;;;13.48;2.95;;;;;;;-1.03;100.00;99261.06;6250908;28;20044;-71
2024/01/17 08:05:47;;;;;;;7.10;2.85;;;;;;;-1.05;100.00;99255.94;6250630;28;20469;-70
2024/01/17 08:08:49;;;;;;;6.85;3.33;;;;;;;-1.00;100.00;99249.81;6251495;28;20053;-71
2024/01/17 08:11:51;;;;;;;5.57;2.30;;;;;;;-0.96;100.00;99248.81;6253794;28;20061;-71
2024/01/17 08:14:54;;;;;;;13.20;3.00;;;;;;;-0.95;100.00;99248.81;6249893;28;20048;-72
2024/01/17 08:17:55;;;;;;;8.43;3.05;;;;;;;-0.97;100.00;99247.16;6247499;28;20046;-72
2024/01/17 08:20:57;;;;;;;5.93;3.55;;;;;;;-0.95;100.00;99247.94;6250323;28;20045;-71
2024/01/17 08:23:59;;;;;;;7.15;3.42;;;;;;;-0.97;100.00;99236.84;6251881;28;20041;-75
2024/01/17 08:27:00;;;;;;;7.07;3.17;;;;;;;-0.99;100.00;99231.72;6244547;28;20450;-73
2024/01/17 08:30:04;;;;;;;4.28;2.90;;;;;;;-0.94;100.00;99226.44;6253562;28;20438;-73
2024/01/17 08:33:06;;;;;;;10.48;3.85;;;;;;;-0.88;100.00;99221.91;6251705;28;20049;-74
2024/01/17 08:36:08;;;;;;;7.70;3.65;;;;;;;-0.87;100.00;99210.69;6245936;28;20050;-73
2024/01/17 08:39:09;;;;;;;14.27;3.78;;;;;;;-0.89;100.00;99198.78;6252947;28;20476;-72
2024/01/17 08:42:11;;;;;;;12.13;3.80;;;;;;;-0.93;100.00;99190.28;6244053;28;20357;-72
2024/01/17 08:45:14;;;;;;;9.82;3.95;;;;;;;-0.92;100.00;99185.97;6251437;28;20041;-73
2024/01/17 08:48:15;;;;;;;5.82;3.20;;;;;;;-0.93;100.00;99179.13;6252638;28;20055;-72
2024/01/17 08:51:17;;;;;;;10.90;4.22;;;;;;;-0.93;100.00;99172.22;6253086;28;20046;-72
2024/01/17 08:54:18;;;;;;;17.48;4.28;;;;;;;-0.81;100.00;99168.44;6252992;28;20045;-73
2024/01/17 08:57:20;;;;;;;7.85;3.97;;;;;;;-0.79;100.00;99159.72;6252454;28;20049;-72
2024/01/17 09:00:23;;;;;;;8.52;3.70;;;;;;;-0.77;100.00;99162.28;6279448;22;20425;-75
2024/01/17 09:03:24;;;;;;;7.57;3.70;;;;;;;-0.71;100.00;99163.81;6277053;28;20449;-74
2024/01/17 09:06:26;;;;;;;6.90;3.92;;;;;;;-0.71;100.00;99164.66;6276481;28;20052;-74
2024/01/17 09:09:27;;;;;;;14.48;4.35;;;;;;;-0.65;100.00;99153.28;6277305;28;20049;-73
2024/01/17 09:12:28;;;;;;;6.68;3.50;;;;;;;-0.59;100.00;99150.47;6276862;28;20052;-75
2024/01/17 09:15:31;;;;;;;5.55;3.42;;;;;;;-0.55;100.00;99150.31;6276617;28;20049;-74
2024/01/17 09:18:32;;;;;;;7.80;3.85;;;;;;;-0.57;100.00;99146.13;6277048;28;20358;-74
2024/01/17 09:21:34;;;;;;;10.88;3.97;;;;;;;-0.53;100.00;99134.81;6276839;28;20460;-75
2024/01/17 09:24:36;;;;;;;12.52;4.47;;;;;;;-0.56;100.00;99129.75;6276754;28;20045;-75
2024/01/17 09:27:37;;;;;;;11.02;4.93;;;;;;;-0.64;100.00;99121.44;6275391;28;20053;-75
2024/01/17 09:30:40;;;;;;;16.15;4.55;;;;;;;-0.70;100.00;99114.75;6267087;28;20060;-74
2024/01/17 09:33:41;;;;;;;15.52;3.80;;;;;;;-0.70;100.00;99107.00;6267037;28;20349;-75
2024/01/17 09:36:43;;;;;;;12.57;4.57;;;;;;;-0.53;100.00;99103.84;6262448;28;20045;-74
2024/01/17 09:39:44;;;;;;;17.08;5.03;;;;;;;-0.47;100.00;99101.06;6264104;28;20048;-74
2024/01/17 09:42:46;;;;;;;15.65;4.32;;;;;;;-0.42;100.00;99106.06;6262576;28;20048;-74
2024/01/17 09:45:48;;;;;;;10.20;5.13;;;;;;;-0.38;100.00;99098.16;6263168;28;20060;-75
2024/01/17 09:48:50;;;;;;;13.20;4.22;;;;;;;-0.32;100.00;99092.78;6263211;28;20049;-74
2024/01/17 09:51:52;;;;;;;16.35;3.83;;;;;;;-0.33;100.00;99090.25;6262557;28;20076;-75
2024/01/17 09:54:54;;;;;;;12.23;4.63;;;;;;;-0.37;100.00;99078.34;6263566;28;20187;-75
2024/01/17 09:57:57;;;;;;;9.02;4.90;;;;;;;-0.24;100.00;99089.91;6262467;28;20127;-74
2024/01/17 10:01:03;;;;;;;10.95;3.92;;;;;;;-0.21;100.00;99081.22;6262816;28;20051;-75
2024/01/17 10:04:05;;;;;;;12.65;4.82;;;;;;;-0.18;100.00;99073.34;6263868;28;20049;-75
2024/01/17 10:07:07;;;;;;;11.38;4.10;;;;;;;-0.12;100.00;99073.16;6260994;28;20052;-74
2024/01/17 10:10:09;;;;;;;15.05;5.55;;;;;;;-0.09;100.00;99068.72;6263690;28;20073;-74
2024/01/17 10:13:11;;;;;;;13.50;4.93;;;;;;;-0.07;100.00;99069.50;6263663;28;20124;-74
2024/01/17 10:16:14;;;;;;;10.25;4.30;;;;;;;-0.03;100.00;99067.66;6261248;28;20131;-74
2024/01/17 10:19:17;;;;;;;15.05;4.57;;;;;;;-0.15;100.00;99050.84;6269955;28;20048;-73
2024/01/17 10:22:19;;;;;;;17.58;4.82;;;;;;;-0.06;100.00;99050.50;6275173;28;20132;-73
2024/01/17 10:25:21;;;;;;;13.43;5.90;;;;;;;0.05;100.00;99044.97;6275667;28;20090;-73
2024/01/17 10:28:23;;;;;;;13.23;5.07;;;;;;;0.15;100.00;99037.72;6275278;28;20053;-74
2024/01/17 10:31:26;;;;;;;16.52;4.47;;;;;;;0.11;100.00;99033.56;6275393;28;20076;-73
2024/01/17 10:34:28;;;;;;;11.00;4.65;;;;;;;0.20;100.00;99041.78;6272178;28;20358;-75
2024/01/17 10:37:30;;;;;;;8.63;4.25;;;;;;;0.20;100.00;99033.19;6260404;28;20053;-74
2024/01/17 10:40:31;;;;;;;11.98;4.47;;;;;;;0.19;100.00;99027.19;6263317;28;20461;-77
2024/01/17 10:43:33;;;;;;;13.75;4.53;;;;;;;0.29;100.00;99013.91;6267418;28;20037;-75
2024/01/17 10:46:35;;;;;;;12.43;5.18;;;;;;;0.33;100.00;99011.16;6264253;28;20127;-74
2024/01/17 10:49:37;;;;;;;14.07;5.10;;;;;;;0.25;100.00;99000.28;6264400;28;20064;-75
2024/01/17 10:52:41;;;;;;;13.90;4.60;;;;;;;0.34;100.00;98991.31;6267042;28;20045;-74
2024/01/17 10:55:45;;;;;;;16.85;4.93;;;;;;;0.45;100.00;98987.38;6262427;28;20045;-74
2024/01/17 10:58:49;;;;;;;11.88;5.25;;;;;;;0.37;100.00;98986.03;6260707;28;20061;-74
2024/01/17 11:01:55;;;;;;;8.63;4.55;;;;;;;0.37;100.00;98976.56;6262678;28;20554;-74
2024/01/17 11:05:03;;;;;;;9.27;4.55;;;;;;;0.54;100.00;98970.66;6261993;28;20064;-75
2024/01/17 11:08:06;;;;;;;7.43;4.25;;;;;;;0.59;100.00;98958.44;6260208;28;20044;-74
2024/01/17 11:11:10;;;;;;;16.88;4.50;;;;;;;0.61;100.00;98954.03;6260999;28;20437;-74
2024/01/17 11:14:12;;;;;;;15.50;4.93;;;;;;;0.63;100.00;98939.28;6260534;28;20452;-74
2024/01/17 11:17:16;;;;;;;10.05;4.90;;;;;;;0.67;100.00;98937.41;6262543;28;20426;-75
2024/01/17 11:20:18;;;;;;;11.02;5.00;;;;;;;0.56;100.00;98948.22;6261391;28;20056;-74
2024/01/17 11:23:26;;;;;;;15.73;5.38;;;;;;;0.57;100.00;98933.53;6261771;28;20040;-75
2024/01/17 11:26:34;;;;;;;9.18;4.47;;;;;;;0.61;100.00;98943.69;6262189;28;20045;-75
2024/01/17 11:29:45;;;;;;;10.15;4.75;;;;;;;0.67;100.00;98927.91;6260849;28;21196;-77
2024/01/17 11:32:56;;;;;;;13.32;5.15;;;;;;;0.76;100.00;98929.25;6263455;28;20076;-75
2024/01/17 11:35:57;;;;;;;13.70;5.13;;;;;;;0.81;100.00;98922.16;6257936;28;20453;-76
2024/01/17 11:38:59;;;;;;;15.20;4.97;;;;;;;0.68;100.00;98915.81;6249619;28;20052;-74
2024/01/17 11:42:00;;;;;;;9.02;5.00;;;;;;;0.69;100.00;98900.25;6256098;28;20049;-74
2024/01/17 11:45:03;;;;;;;12.88;5.00;;;;;;;0.75;100.00;98893.97;6261487;28;20045;-74
2024/01/17 11:48:19;;;;;;;11.57;4.82;;;;;;;0.88;100.00;98887.38;6262138;28;20459;-74
2024/01/17 11:51:26;;;;;;;9.27;4.30;;;;;;;0.92;100.00;98882.91;6266400;28;20056;-77
2024/01/17 11:54:27;;;;;;;16.17;4.72;;;;;;;0.89;100.00;98875.28;6268130;28;20049;-75
2024/01/17 11:57:33;;;;;;;11.48;5.72;;;;;;;0.95;100.00;98867.25;6265210;28;20052;-73
2024/01/17 12:00:35;;;;;;;11.07;5.07;;;;;;;0.99;100.00;98856.69;6261893;28;20580;-73
2024/01/17 12:03:39;;;;;;;13.95;5.35;;;;;;;0.94;100.00;98847.47;6249224;28;20056;-73
2024/01/17 12:06:40;;;;;;;10.10;4.60;;;;;;;1.05;100.00;98844.41;6250915;28;20347;-74
2024/01/17 12:09:42;;;;;;;12.90;4.65;;;;;;;1.08;100.00;98834.75;6253905;28;20068;-74
2024/01/17 12:12:43;;;;;;;12.48;4.45;;;;;;;1.09;100.00;98828.69;6274229;28;20373;-73
2024/01/17 12:15:46;;;;;;;10.93;5.75;;;;;;;1.09;100.00;98822.66;6263674;28;20135;-74
2024/01/17 12:18:57;;;;;;;10.38;4.88;;;;;;;1.16;100.00;98818.91;6266380;28;20041;-74
2024/01/17 12:21:58;;;;;;;14.77;4.50;;;;;;;1.19;100.00;98817.00;6256273;28;20455;-76
2024/01/17 12:24:59;;;;;;;12.48;5.60;;;;;;;1.16;100.00;98813.72;6264055;28;20465;-75
2024/01/17 12:28:02;;;;;;;9.90;3.90;;;;;;;1.23;100.00;98800.44;6277828;28;20349;-75
2024/01/17 12:31:06;;;;;;;12.35;5.57;;;;;;;1.10;100.00;98795.91;6272116;28;20463;-74
2024/01/17 12:34:10;;;;;;;12.50;4.22;;;;;;;1.22;100.00;98798.72;6278123;28;20060;-75
2024/01/17 12:37:12;;;;;;;11.38;5.15;;;;;;;1.24;100.00;98789.16;6277218;28;20048;-75
2024/01/17 12:40:13;;;;;;;14.63;4.45;;;;;;;1.26;100.00;98782.16;6278125;28;20052;-74
2024/01/17 12:43:16;;;;;;;12.35;5.20;;;;;;;1.19;100.00;98778.22;6282027;28;20049;-75
2024/01/17 12:46:18;;;;;;;14.95;4.50;;;;;;;1.22;100.00;98777.22;6286668;28;20048;-75
2024/01/17 12:49:21;;;;;;;11.82;5.13;;;;;;;1.19;100.00;98767.84;6277563;28;20053;-75
2024/01/17 12:52:23;;;;;;;13.48;5.35;;;;;;;1.21;100.00;98766.03;6277618;28;20095;-76
2024/01/17 12:55:25;;;;;;;7.57;3.70;;;;;;;1.26;100.00;98761.47;6277583;28;20045;-75
2024/01/17 12:58:27;;;;;;;11.77;4.85;;;;;;;1.30;100.00;98753.56;6277653;28;20433;-75
2024/01/17 13:01:30;;;;;;;9.80;5.32;;;;;;;1.20;100.00;98754.00;6277443;28;20049;-75
2024/01/17 13:04:33;;;;;;;14.23;5.15;;;;;;;1.12;100.00;98757.84;6277069;28;20056;-75
2024/01/17 13:07:34;;;;;;;13.40;4.63;;;;;;;1.17;100.00;98738.63;6275922;28;20053;-75
2024/01/17 13:10:36;;;;;;;8.00;4.55;;;;;;;1.19;100.00;98742.00;6275262;28;20365;-75
2024/01/17 13:13:38;;;;;;;14.00;6.78;;;;;;;1.25;100.00;98741.69;6270732;28;20372;-75
2024/01/17 13:16:39;;;;;;;10.63;5.00;;;;;;;1.26;100.00;98734.75;6269073;28;20053;-75
2024/01/17 13:19:42;;;;;;;11.40;4.95;;;;;;;1.20;100.00;98727.31;6267849;28;20438;-76
2024/01/17 13:22:43;;;;;;;9.82;4.53;;;;;;;1.22;100.00;98733.22;6269853;28;20054;-75
2024/01/17 13:25:44;;;;;;;10.25;4.70;;;;;;;1.27;100.00;98736.44;6267787;28;20150;-75
2024/01/17 13:28:46;;;;;;;8.30;4.50;;;;;;;1.23;100.00;98734.94;6270106;28;20045;-74
2024/01/17 13:31:47;;;;;;;9.50;4.40;;;;;;;1.20;100.00;98730.72;6275032;28;20053;-74
2024/01/17 13:34:50;;;;;;;9.80;4.68;;;;;;;1.21;100.00;98731.56;6276414;28;20330;-74
2024/01/17 13:37:51;;;;;;;14.48;4.38;;;;;;;1.15;100.00;98730.09;6275733;28;20056;-74
2024/01/17 13:40:53;;;;;;;12.50;4.68;;;;;;;1.19;100.00;98738.56;6271946;28;20041;-75
2024/01/17 13:43:56;;;;;;;13.77;4.80;;;;;;;1.11;100.00;98738.91;6266951;28;20397;-74
2024/01/17 13:46:58;;;;;;;13.02;4.72;;;;;;;1.08;100.00;98728.72;6264767;28;20045;-74
2024/01/17 13:50:08;;;;;;;25.63;5.32;;;;;;;1.06;100.00;98725.38;6270296;28;20057;-75
2024/01/17 13:53:17;;;;;;;9.15;3.92;;;;;;;1.07;100.00;98714.09;6268584;28;20069;-74
2024/01/17 13:56:19;;;;;;;9.90;4.53;;;;;;;1.15;100.00;98713.75;6267801;28;20041;-74
2024/01/17 13:59:20;;;;;;;12.80;4.40;;;;;;;1.12;100.00;98724.22;6269881;28;20526;-74
2024/01/17 14:02:21;;;;;;;11.45;5.05;;;;;;;1.12;100.00;98719.91;6271066;28;20130;-74
2024/01/17 14:05:25;;;;;;;11.65;4.53;;;;;;;1.10;100.00;98713.13;6267730;28;20041;-74